createdAt,value
2023-04-18T00:01:09.974Z,28.63
2023-04-18T00:03:39.127Z,28.15
2023-04-18T00:06:07.030Z,27.38
2023-04-18T00:08:34.540Z,24.30
2023-04-18T00:11:02.016Z,28.73
2023-04-18T00:13:29.250Z,29.98
2023-04-18T00:15:56.953Z,27.90
2023-04-18T00:18:26.820Z,28.95
2023-04-18T00:20:54.547Z,29.55
2023-04-18T00:23:22.482Z,29.10
2023-04-18T00:25:49.868Z,30.73
2023-04-18T00:28:17.114Z,29.15
2023-04-18T00:30:45.776Z,32.58
2023-04-18T00:33:13.056Z,29.70
2023-04-18T00:35:40.537Z,30.63
2023-04-18T00:38:08.657Z,32.40
2023-04-18T00:40:36.391Z,31.73
2023-04-18T00:43:03.721Z,32.03
2023-04-18T00:45:31.311Z,32.85
2023-04-18T00:47:58.726Z,34.25
2023-04-18T00:50:26.562Z,34.92
2023-04-18T00:52:54.904Z,33.70
2023-04-18T00:55:23.072Z,32.00
2023-04-18T00:57:51.252Z,34.05
2023-04-18T01:00:18.996Z,30.42
2023-04-18T01:02:47.171Z,33.30
2023-04-18T01:05:14.782Z,34.35
2023-04-18T01:07:43.144Z,33.55
2023-04-18T01:10:11.454Z,33.28
2023-04-18T01:12:39.499Z,32.08
2023-04-18T01:15:07.877Z,33.85
2023-04-18T01:17:36.678Z,34.85
2023-04-18T01:20:06.427Z,34.28
2023-04-18T01:22:34.216Z,35.33
2023-04-18T01:25:06.503Z,35.22
2023-04-18T01:27:33.871Z,29.88
2023-04-18T01:30:01.377Z,33.78
2023-04-18T01:32:30.449Z,33.38
2023-04-18T01:34:57.842Z,34.78
2023-04-18T01:37:25.454Z,34.70
2023-04-18T01:39:52.792Z,32.78
2023-04-18T01:42:20.170Z,32.10
2023-04-18T01:44:47.471Z,33.95
2023-04-18T01:47:14.822Z,35.00
2023-04-18T01:49:46.792Z,33.80
2023-04-18T01:52:14.914Z,32.72
2023-04-18T01:54:42.732Z,32.65
2023-04-18T01:57:10.153Z,33.95
2023-04-18T01:59:38.540Z,35.28
2023-04-18T02:02:06.232Z,33.47
2023-04-18T02:04:33.626Z,34.42
2023-04-18T02:07:01.105Z,35.17
2023-04-18T02:09:28.484Z,36.42
2023-04-18T02:11:59.350Z,34.78
2023-04-18T02:14:30.618Z,35.88
2023-04-18T02:17:00.954Z,35.70
2023-04-18T02:19:29.665Z,37.47
2023-04-18T02:21:57.227Z,31.70
2023-04-18T02:24:24.649Z,35.40
2023-04-18T02:26:51.969Z,34.83
2023-04-18T02:29:19.599Z,34.50
2023-04-18T02:31:46.957Z,35.50
2023-04-18T02:34:15.876Z,36.60
2023-04-18T02:36:43.434Z,36.00
2023-04-18T02:39:11.009Z,38.85
2023-04-18T02:41:39.503Z,35.05
2023-04-18T02:44:08.737Z,34.65
2023-04-18T02:46:38.774Z,35.05
2023-04-18T02:49:09.185Z,33.55
2023-04-18T02:51:36.781Z,32.75
2023-04-18T02:54:04.714Z,35.20
2023-04-18T02:56:44.868Z,34.67
2023-04-18T02:59:18.942Z,34.30
2023-04-18T03:01:48.310Z,31.58
2023-04-18T03:04:18.968Z,34.78
2023-04-18T03:06:56.362Z,32.15
2023-04-18T03:09:24.246Z,34.03
2023-04-18T03:11:56.912Z,34.22
2023-04-18T03:14:27.425Z,32.08
2023-04-18T03:16:56.305Z,31.08
2023-04-18T03:19:28.949Z,33.47
2023-04-18T03:21:59.860Z,30.92
2023-04-18T03:24:27.904Z,35.40
2023-04-18T03:27:00.788Z,31.45
2023-04-18T03:29:28.424Z,32.47
2023-04-18T03:31:56.331Z,33.55
2023-04-18T03:34:23.954Z,33.00
2023-04-18T03:36:52.625Z,30.77
2023-04-18T03:39:19.994Z,32.03
2023-04-18T03:41:47.739Z,32.08
2023-04-18T03:44:15.838Z,31.67
2023-04-18T03:46:43.451Z,32.92
2023-04-18T03:49:11.200Z,34.53
2023-04-18T03:51:41.522Z,36.55
2023-04-18T03:54:09.001Z,33.85
2023-04-18T03:56:36.842Z,33.22
2023-04-18T03:59:04.391Z,32.58
2023-04-18T04:01:31.880Z,31.95
2023-04-18T04:03:59.739Z,33.70
2023-04-18T04:06:27.666Z,31.17
2023-04-18T04:08:55.548Z,34.50
2023-04-18T04:11:26.324Z,33.20
2023-04-18T04:13:53.906Z,32.25
2023-04-18T04:16:27.413Z,33.33
2023-04-18T04:18:55.929Z,31.83
2023-04-18T04:21:30.850Z,32.85
2023-04-18T04:23:58.518Z,34.65
2023-04-18T04:26:27.837Z,35.08
2023-04-18T04:29:03.797Z,35.80
2023-04-18T04:31:33.918Z,34.08
2023-04-18T04:34:01.829Z,36.75
2023-04-18T04:36:29.522Z,32.42
2023-04-18T04:38:59.604Z,33.25
2023-04-18T04:41:33.894Z,35.50
2023-04-18T04:44:02.051Z,33.00
2023-04-18T04:46:32.661Z,34.47
2023-04-18T04:49:02.194Z,35.10
2023-04-18T04:51:29.569Z,33.53
2023-04-18T04:53:57.562Z,33.08
2023-04-18T04:56:25.043Z,36.42
2023-04-18T04:58:53.949Z,32.72
2023-04-18T05:01:25.075Z,35.13
2023-04-18T05:03:52.936Z,33.20
2023-04-18T05:06:22.547Z,34.30
2023-04-18T05:08:51.108Z,32.88
2023-04-18T05:11:18.822Z,32.13
2023-04-18T05:13:46.144Z,32.92
2023-04-18T05:16:13.480Z,32.47
2023-04-18T05:18:41.728Z,31.30
2023-04-18T05:21:09.178Z,33.15
2023-04-18T05:23:37.273Z,34.85
2023-04-18T05:26:06.063Z,35.67
2023-04-18T05:28:33.481Z,36.42
2023-04-18T05:31:01.649Z,34.58
2023-04-18T05:33:30.941Z,35.08
2023-04-18T05:35:58.952Z,37.72
2023-04-18T05:38:26.474Z,34.90
2023-04-18T05:40:56.037Z,34.53
2023-04-18T05:43:23.846Z,36.80
2023-04-18T05:45:52.797Z,35.00
2023-04-18T05:48:22.471Z,34.13
2023-04-18T05:50:49.745Z,34.00
2023-04-18T05:53:17.157Z,34.50
2023-04-18T05:55:46.817Z,35.88
2023-04-18T05:58:14.343Z,37.15
2023-04-18T06:00:42.856Z,33.88
2023-04-18T06:03:11.330Z,33.03
2023-04-18T06:05:41.075Z,35.83
2023-04-18T06:08:08.658Z,34.90
2023-04-18T06:10:38.423Z,32.42
2023-04-18T06:13:06.408Z,35.05
2023-04-18T06:15:34.706Z,34.20
2023-04-18T06:18:02.330Z,32.60
2023-04-18T06:20:29.788Z,33.72
2023-04-18T06:22:57.218Z,32.10
2023-04-18T06:25:25.208Z,31.17
2023-04-18T06:27:52.578Z,32.97
2023-04-18T06:30:22.152Z,32.13
2023-04-18T06:32:50.116Z,31.73
2023-04-18T06:35:17.563Z,31.45
2023-04-18T06:37:45.549Z,31.23
2023-04-18T06:40:13.226Z,28.92
2023-04-18T06:42:40.681Z,30.13
2023-04-18T06:45:08.363Z,30.33
2023-04-18T06:47:36.402Z,30.52
2023-04-18T06:50:04.516Z,29.20
2023-04-18T06:52:31.896Z,29.90
2023-04-18T06:54:59.433Z,30.27
2023-04-18T06:57:27.090Z,29.98
2023-04-18T06:59:54.448Z,32.17
2023-04-18T07:02:21.909Z,30.33
2023-04-18T07:04:50.396Z,32.58
2023-04-18T07:07:17.785Z,30.75
2023-04-18T07:09:45.163Z,30.63
2023-04-18T07:12:12.573Z,30.13
2023-04-18T07:14:39.929Z,30.05
2023-04-18T07:17:07.735Z,30.02
2023-04-18T07:19:35.420Z,30.55
2023-04-18T07:22:02.870Z,30.15
2023-04-18T07:24:30.753Z,31.15
2023-04-18T07:26:58.256Z,29.83
2023-04-18T07:29:25.602Z,28.10
2023-04-18T07:31:53.154Z,28.20
2023-04-18T07:34:22.172Z,30.48
2023-04-18T07:36:49.663Z,26.63
2023-04-18T07:39:17.119Z,24.58
2023-04-18T07:41:44.504Z,25.10
2023-04-18T07:44:11.895Z,26.05
2023-04-18T07:46:39.769Z,25.77
2023-04-18T07:49:07.216Z,26.67
2023-04-18T07:51:35.141Z,25.17
2023-04-18T07:54:02.556Z,26.48
2023-04-18T07:56:30.074Z,25.73
2023-04-18T07:58:57.347Z,26.15
2023-04-18T08:01:27.320Z,24.75
2023-04-18T08:03:56.677Z,23.60
2023-04-18T08:06:24.427Z,25.63
2023-04-18T08:08:52.784Z,24.00
2023-04-18T08:11:20.986Z,22.77
2023-04-18T08:13:48.458Z,23.52
2023-04-18T08:16:17.540Z,20.85
2023-04-18T08:18:45.128Z,22.98
2023-04-18T08:21:12.846Z,21.92
2023-04-18T08:23:40.227Z,22.33
2023-04-18T08:26:07.657Z,22.45
2023-04-18T08:28:34.957Z,20.13
2023-04-18T08:31:02.652Z,19.17
2023-04-18T08:33:30.164Z,20.63
2023-04-18T08:35:57.646Z,20.55
2023-04-18T08:38:25.065Z,19.90
2023-04-18T08:40:52.430Z,18.52
2023-04-18T08:43:19.704Z,19.75
2023-04-18T08:45:47.570Z,17.83
2023-04-18T08:48:16.809Z,21.15
2023-04-18T08:50:45.522Z,20.73
2023-04-18T08:53:13.058Z,19.92
2023-04-18T08:55:40.736Z,20.38
2023-04-18T08:58:08.118Z,19.98
2023-04-18T09:00:35.681Z,18.98
2023-04-18T09:03:04.159Z,17.85
2023-04-18T09:05:31.823Z,17.40
2023-04-18T09:07:59.285Z,16.35
2023-04-18T09:10:29.416Z,17.80
2023-04-18T09:12:58.222Z,17.23
2023-04-18T09:15:29.395Z,18.30
2023-04-18T09:17:59.052Z,16.88
2023-04-18T09:20:30.901Z,16.48
2023-04-18T09:23:00.987Z,17.55
2023-04-18T09:25:35.194Z,16.33
2023-04-18T09:28:04.777Z,17.27
2023-04-18T09:30:35.305Z,16.52
2023-04-18T09:33:04.726Z,16.20
2023-04-18T09:35:32.099Z,16.20
2023-04-18T09:37:59.640Z,15.98
2023-04-18T09:40:27.337Z,16.10
2023-04-18T09:42:54.868Z,15.20
2023-04-18T09:45:23.259Z,14.57
2023-04-18T09:47:52.627Z,15.10
2023-04-18T09:50:20.992Z,14.45
2023-04-18T09:52:49.138Z,14.07
2023-04-18T09:55:19.038Z,14.50
2023-04-18T09:57:48.230Z,12.68
2023-04-18T10:00:24.516Z,15.45
2023-04-18T10:02:58.422Z,15.25
2023-04-18T10:05:31.940Z,16.02
2023-04-18T10:10:27.065Z,15.02
2023-04-18T10:12:58.342Z,13.90
2023-04-18T10:15:27.734Z,12.35
2023-04-18T10:18:04.331Z,12.95
2023-04-18T10:20:35.598Z,13.85
2023-04-18T10:23:25.538Z,13.27
2023-04-18T10:25:54.624Z,12.27
2023-04-18T10:28:22.132Z,12.88
2023-04-18T10:30:51.873Z,12.18
2023-04-18T10:33:30.472Z,11.80
2023-04-18T10:36:06.171Z,11.20
2023-04-18T10:38:35.067Z,11.55
2023-04-18T10:41:05.678Z,10.63
2023-04-18T10:43:54.525Z,10.80
2023-04-18T10:46:31.948Z,9.73
2023-04-18T10:49:03.693Z,10.32
2023-04-18T10:51:31.054Z,10.00
2023-04-18T10:54:01.134Z,8.65
2023-04-18T10:56:29.409Z,9.75
2023-04-18T10:59:01.823Z,9.73
2023-04-18T11:01:33.246Z,8.98
2023-04-18T11:04:01.401Z,9.57
2023-04-18T11:06:30.434Z,8.43
2023-04-18T11:09:01.306Z,8.88
2023-04-18T11:11:28.758Z,8.63
2023-04-18T11:13:57.796Z,8.20
2023-04-18T11:16:29.479Z,7.03
2023-04-18T11:18:57.099Z,7.97
2023-04-18T11:21:30.318Z,7.50
2023-04-18T11:23:58.633Z,7.22
2023-04-18T11:26:27.875Z,7.55
2023-04-18T11:28:57.317Z,7.15
2023-04-18T11:31:26.123Z,7.18
2023-04-18T11:33:56.650Z,7.25
2023-04-18T11:36:24.347Z,7.25
2023-04-18T11:38:51.912Z,7.15
2023-04-18T11:41:19.279Z,7.22
2023-04-18T11:43:47.328Z,7.22
2023-04-18T11:46:14.903Z,6.90
2023-04-18T11:48:45.391Z,6.00
2023-04-18T11:51:15.767Z,6.40
2023-04-18T11:53:43.195Z,6.53
2023-04-18T11:56:13.826Z,5.60
2023-04-18T11:58:42.428Z,5.97
2023-04-18T12:01:13.276Z,5.68
2023-04-18T12:03:40.838Z,6.22
2023-04-18T12:06:08.425Z,5.22
2023-04-18T12:08:35.890Z,5.45
2023-04-18T12:11:03.112Z,5.55
2023-04-18T12:13:33.222Z,5.38
2023-04-18T12:16:02.545Z,5.13
2023-04-18T12:18:31.615Z,5.15
2023-04-18T12:21:02.179Z,5.03
2023-04-18T12:23:31.531Z,6.00
2023-04-18T12:26:01.693Z,5.03
2023-04-18T12:28:29.381Z,4.97
2023-04-18T12:30:57.104Z,4.93
2023-04-18T12:33:24.486Z,4.75
2023-04-18T12:35:53.170Z,5.28
2023-04-18T12:38:22.452Z,4.88
2023-04-18T12:40:51.319Z,5.53
2023-04-18T12:43:19.500Z,5.05
2023-04-18T12:45:47.475Z,5.07
2023-04-18T12:48:14.988Z,4.82
2023-04-18T12:50:42.556Z,4.22
2023-04-18T12:53:09.975Z,4.43
2023-04-18T12:55:37.744Z,4.60
2023-04-18T12:58:05.247Z,3.97
2023-04-18T13:00:33.228Z,4.15
2023-04-18T13:03:01.236Z,4.05
2023-04-18T13:05:32.490Z,3.70
2023-04-18T13:10:31.692Z,3.50
2023-04-18T13:12:59.238Z,4.20
2023-04-18T13:15:27.734Z,3.83
2023-04-18T13:17:56.944Z,4.03
2023-04-18T13:20:24.776Z,3.88
2023-04-18T13:22:52.054Z,3.60
2023-04-18T13:25:19.486Z,3.70
2023-04-18T13:27:46.891Z,4.05
2023-04-18T13:30:14.392Z,3.63
2023-04-18T13:32:44.121Z,4.20
2023-04-18T13:35:11.772Z,3.70
2023-04-18T13:37:39.809Z,4.13
2023-04-18T13:40:08.184Z,3.17
2023-04-18T13:42:37.230Z,3.85
2023-04-18T13:45:05.001Z,3.60
2023-04-18T13:47:32.558Z,3.83
2023-04-18T13:49:59.984Z,3.55
2023-04-18T13:52:27.326Z,3.60
2023-04-18T13:54:55.209Z,3.30
2023-04-18T13:57:23.265Z,3.30
2023-04-18T13:59:50.858Z,3.03
2023-04-18T14:02:18.334Z,3.20
2023-04-18T14:04:46.704Z,3.47
2023-04-18T14:07:14.230Z,3.33
2023-04-18T14:09:42.962Z,3.00
2023-04-18T14:12:10.794Z,3.00
2023-04-18T14:14:38.221Z,3.17
2023-04-18T14:17:06.820Z,3.13
2023-04-18T14:19:35.216Z,3.33
2023-04-18T14:22:02.490Z,3.13
2023-04-18T14:24:30.041Z,3.50
2023-04-18T14:26:57.383Z,3.25
2023-04-18T14:29:24.861Z,3.25
2023-04-18T14:31:52.260Z,3.20
2023-04-18T14:34:19.648Z,3.55
2023-04-18T14:36:46.972Z,3.45
2023-04-18T14:39:14.610Z,2.80
2023-04-18T14:41:42.051Z,3.20
2023-04-18T14:44:09.352Z,3.00
2023-04-18T14:46:37.165Z,3.10
2023-04-18T14:49:04.570Z,2.90
2023-04-18T14:51:32.329Z,2.50
2023-04-18T14:53:59.940Z,2.72
2023-04-18T14:56:27.339Z,2.97
2023-04-18T14:58:54.800Z,2.83
2023-04-18T15:01:22.274Z,2.67
2023-04-18T15:03:51.593Z,2.63
2023-04-18T15:06:19.029Z,2.70
2023-04-18T15:08:46.535Z,2.50
2023-04-18T15:11:13.833Z,2.65
2023-04-18T15:13:41.456Z,2.55
2023-04-18T15:16:08.982Z,2.47
2023-04-18T15:18:36.514Z,2.50
2023-04-18T15:21:03.893Z,2.50
2023-04-18T15:23:32.130Z,2.58
2023-04-18T15:25:59.835Z,2.65
2023-04-18T15:28:27.281Z,2.65
2023-04-18T15:30:54.803Z,2.95
2023-04-18T15:33:25.328Z,2.40
2023-04-18T15:35:52.740Z,2.42
2023-04-18T15:38:20.124Z,2.30
2023-04-18T15:40:47.613Z,2.60
2023-04-18T15:43:17.339Z,2.50
2023-04-18T15:45:45.083Z,2.20
2023-04-18T15:48:13.349Z,2.70
2023-04-18T15:50:42.481Z,2.58
2023-04-18T15:53:10.010Z,2.30
2023-04-18T15:55:37.520Z,2.55
2023-04-18T15:58:05.306Z,2.53
2023-04-18T16:00:32.942Z,2.33
2023-04-18T16:03:00.377Z,2.53
2023-04-18T16:05:27.838Z,2.83
2023-04-18T16:07:56.487Z,2.78
2023-04-18T16:10:24.469Z,2.42
2023-04-18T16:12:51.768Z,2.50
2023-04-18T16:15:19.587Z,2.50
2023-04-18T16:17:46.893Z,2.40
2023-04-18T16:20:14.298Z,2.55
2023-04-18T16:22:41.736Z,2.80
2023-04-18T16:25:09.600Z,2.47
2023-04-18T16:27:37.008Z,3.15
2023-04-18T16:30:05.400Z,2.95
2023-04-18T16:32:32.783Z,2.92
2023-04-18T16:35:00.424Z,2.80
2023-04-18T16:37:27.849Z,3.17
2023-04-18T16:39:55.173Z,2.85
2023-04-18T16:42:22.443Z,3.08
2023-04-18T16:44:49.922Z,3.17
2023-04-18T16:47:17.244Z,2.70
2023-04-18T16:49:46.763Z,2.92
2023-04-18T16:52:14.664Z,2.88
2023-04-18T16:54:42.086Z,2.88
2023-04-18T16:57:09.545Z,2.85
2023-04-18T16:59:37.019Z,2.75
2023-04-18T17:02:04.620Z,3.10
2023-04-18T17:04:32.200Z,2.75
2023-04-18T17:07:01.086Z,2.75
2023-04-18T17:09:28.503Z,2.63
2023-04-18T17:11:55.812Z,2.63
2023-04-18T17:14:23.273Z,2.60
2023-04-18T17:16:52.916Z,2.83
2023-04-18T17:19:21.430Z,2.47
2023-04-18T17:21:51.017Z,2.80
2023-04-18T17:24:19.190Z,2.80
2023-04-18T17:26:46.451Z,2.83
2023-04-18T17:29:14.046Z,2.90
2023-04-18T17:31:41.846Z,2.70
2023-04-18T17:34:09.215Z,2.53
2023-04-18T17:36:36.628Z,2.88
2023-04-18T17:39:05.782Z,3.05
2023-04-18T17:41:36.380Z,2.67
2023-04-18T17:44:04.217Z,2.88
2023-04-18T17:46:32.349Z,2.60
2023-04-18T17:49:00.656Z,2.40
2023-04-18T17:51:28.039Z,2.60
2023-04-18T17:53:55.360Z,2.50
2023-04-18T17:56:23.071Z,2.50
2023-04-18T17:58:50.870Z,2.75
2023-04-18T18:01:20.062Z,3.05
2023-04-18T18:03:48.398Z,2.60
2023-04-18T18:06:16.342Z,3.00
2023-04-18T18:08:44.312Z,2.47
2023-04-18T18:11:11.732Z,2.95
2023-04-18T18:13:39.407Z,2.80
2023-04-18T18:16:07.708Z,2.90
2023-04-18T18:18:35.385Z,3.35
2023-04-18T18:21:02.786Z,3.00
2023-04-18T18:23:30.342Z,2.60
2023-04-18T18:25:57.662Z,3.13
2023-04-18T18:28:25.157Z,3.53
2023-04-18T18:30:52.462Z,3.00
2023-04-18T18:33:19.964Z,3.00
2023-04-18T18:35:47.312Z,3.42
2023-04-18T18:38:14.672Z,3.97
2023-04-18T18:40:41.960Z,3.28
2023-04-18T18:43:09.442Z,3.55
2023-04-18T18:45:37.670Z,3.35
2023-04-18T18:48:07.293Z,3.50
2023-04-18T18:50:34.813Z,3.75
2023-04-18T18:53:02.340Z,3.67
2023-04-18T18:55:30.545Z,3.55
2023-04-18T18:57:57.999Z,3.45
2023-04-18T19:00:25.528Z,3.80
2023-04-18T19:02:53.023Z,4.00
2023-04-18T19:05:21.542Z,3.45
2023-04-18T19:07:49.249Z,4.25
2023-04-18T19:10:16.560Z,4.22
2023-04-18T19:12:44.072Z,4.05
2023-04-18T19:15:11.953Z,4.78
2023-04-18T19:17:39.457Z,4.70
2023-04-18T19:20:07.813Z,4.78
2023-04-18T19:22:35.265Z,4.75
2023-04-18T19:25:03.068Z,4.95
2023-04-18T19:27:30.509Z,4.55
2023-04-18T19:29:57.783Z,5.22
2023-04-18T19:32:25.575Z,5.38
2023-04-18T19:34:53.006Z,4.43
2023-04-18T19:37:20.306Z,4.97
2023-04-18T19:39:47.551Z,5.20
2023-04-18T19:42:15.009Z,4.97
2023-04-18T19:44:42.363Z,5.15
2023-04-18T19:47:09.856Z,4.85
2023-04-18T19:49:37.251Z,5.35
2023-04-18T19:52:04.761Z,5.05
2023-04-18T19:54:33.599Z,5.63
2023-04-18T19:57:01.598Z,4.78
2023-04-18T19:59:28.799Z,4.50
2023-04-18T20:01:57.966Z,5.03
2023-04-18T20:04:27.840Z,5.13
2023-04-18T20:06:56.501Z,4.90
2023-04-18T20:09:23.869Z,4.93
2023-04-18T20:11:51.329Z,4.47
2023-04-18T20:14:18.732Z,5.38
2023-04-18T20:16:49.233Z,4.93
2023-04-18T20:19:18.010Z,4.90
2023-04-18T20:21:45.499Z,5.30
2023-04-18T20:24:13.881Z,4.88
2023-04-18T20:26:41.299Z,5.60
2023-04-18T20:29:08.836Z,4.43
2023-04-18T20:31:37.846Z,5.22
2023-04-18T20:34:05.433Z,4.60
2023-04-18T20:36:34.666Z,4.80
2023-04-18T20:39:02.521Z,4.85
2023-04-18T20:41:31.207Z,4.82
2023-04-18T20:43:58.734Z,5.18
2023-04-18T20:46:26.068Z,4.85
2023-04-18T20:48:53.509Z,4.80
2023-04-18T20:51:20.840Z,4.30
2023-04-18T20:53:48.170Z,5.15
2023-04-18T20:56:15.530Z,4.72
2023-04-18T20:58:43.182Z,4.85
2023-04-18T21:01:10.547Z,4.68
2023-04-18T21:03:38.102Z,5.32
2023-04-18T21:06:05.734Z,5.35
2023-04-18T21:08:35.123Z,5.22
2023-04-18T21:11:02.483Z,5.43
2023-04-18T21:13:31.947Z,5.10
2023-04-18T21:15:59.255Z,5.28
2023-04-18T21:18:26.690Z,4.78
2023-04-18T21:20:54.078Z,5.72
2023-04-18T21:23:24.630Z,4.50
2023-04-18T21:25:52.048Z,4.95
2023-04-18T21:28:20.500Z,5.07
2023-04-18T21:30:47.781Z,5.60
2023-04-18T21:33:15.817Z,5.10
2023-04-18T21:35:43.105Z,5.95
2023-04-18T21:38:10.453Z,4.97
2023-04-18T21:40:38.339Z,5.35
2023-04-18T21:43:05.689Z,5.00
2023-04-18T21:45:33.789Z,6.45
2023-04-18T21:48:01.278Z,4.95
2023-04-18T21:50:28.659Z,5.20
2023-04-18T21:52:56.140Z,5.72
2023-04-18T21:55:23.550Z,5.22
2023-04-18T21:57:50.942Z,5.47
2023-04-18T22:00:19.123Z,5.70
2023-04-18T22:02:47.325Z,5.47
2023-04-18T22:05:16.209Z,5.20
2023-04-18T22:07:56.815Z,5.55
2023-04-18T22:10:25.882Z,5.82
2023-04-18T22:12:54.187Z,5.50
2023-04-18T22:15:21.911Z,6.03
2023-04-18T22:17:50.632Z,5.70
2023-04-18T22:20:18.117Z,5.50
2023-04-18T22:22:45.575Z,5.88
2023-04-18T22:25:13.052Z,6.10
2023-04-18T22:27:40.871Z,5.47
2023-04-18T22:30:08.817Z,5.78
2023-04-18T22:32:36.180Z,5.68
2023-04-18T22:35:04.200Z,6.05
2023-04-18T22:37:31.584Z,5.57
2023-04-18T22:39:59.098Z,6.15
2023-04-18T22:42:26.326Z,5.75
2023-04-18T22:44:53.640Z,5.47
2023-04-18T22:47:21.471Z,5.43
2023-04-18T22:49:49.468Z,5.95
2023-04-18T22:52:16.752Z,6.05
2023-04-18T22:54:44.208Z,5.68
2023-04-18T22:57:11.718Z,5.75
2023-04-18T22:59:39.258Z,5.82
2023-04-18T23:02:06.968Z,5.32
2023-04-18T23:04:34.656Z,5.88
2023-04-18T23:07:02.133Z,6.03
2023-04-18T23:09:31.526Z,5.97
2023-04-18T23:11:58.836Z,5.57
2023-04-18T23:14:26.221Z,5.82
2023-04-18T23:16:53.554Z,5.80
2023-04-18T23:19:20.952Z,6.63
2023-04-18T23:21:49.642Z,5.97
2023-04-18T23:24:17.464Z,5.50
2023-04-18T23:26:44.911Z,6.38
2023-04-18T23:29:12.273Z,5.93
2023-04-18T23:31:39.591Z,5.95
2023-04-18T23:34:06.954Z,5.97
2023-04-18T23:36:34.271Z,6.07
2023-04-18T23:39:02.238Z,6.40
2023-04-18T23:41:29.516Z,6.00
2023-04-18T23:43:56.912Z,6.57
2023-04-18T23:46:24.350Z,6.47
2023-04-18T23:48:52.442Z,6.00
2023-04-18T23:51:19.788Z,6.75
2023-04-18T23:53:47.195Z,6.68
2023-04-18T23:56:14.492Z,5.85
2023-04-18T23:58:41.884Z,6.72
